createdAt,value
2022-07-30T00:01:39.737Z,98407.50
2022-07-30T00:04:06.606Z,98402.03
2022-07-30T00:06:33.276Z,98403.97
2022-07-30T00:08:59.960Z,98404.69
2022-07-30T00:11:28.035Z,98401.19
2022-07-30T00:13:55.205Z,98407.34
2022-07-30T00:16:21.820Z,98399.38
2022-07-30T00:18:48.504Z,98387.91
2022-07-30T00:21:34.697Z,98404.69
2022-07-30T00:24:02.483Z,98388.72
2022-07-30T00:26:29.248Z,98382.56
2022-07-30T00:28:56.012Z,98378.91
2022-07-30T00:31:23.300Z,98373.59
2022-07-30T00:33:49.932Z,98374.59
2022-07-30T00:36:16.472Z,98368.25
2022-07-30T00:38:43.168Z,98368.25
2022-07-30T00:41:09.709Z,98363.94
2022-07-30T00:43:36.338Z,98359.44
2022-07-30T00:46:03.130Z,98358.63
2022-07-30T00:48:29.773Z,98348.81
2022-07-30T00:50:56.432Z,98349.78
2022-07-30T00:53:24.009Z,98348.81
2022-07-30T00:55:50.667Z,98350.66
2022-07-30T00:58:17.219Z,98355.09
2022-07-30T01:00:43.973Z,98346.97
2022-07-30T01:03:10.646Z,98341.81
2022-07-30T01:05:37.250Z,98340.00
2022-07-30T01:08:04.280Z,98346.97
2022-07-30T01:10:30.847Z,98345.31
2022-07-30T01:12:59.125Z,98343.50
2022-07-30T01:15:26.033Z,98332.84
2022-07-30T01:17:56.738Z,98328.50
2022-07-30T01:20:28.905Z,98321.66
2022-07-30T01:23:21.476Z,98328.50
2022-07-30T01:26:02.655Z,98318.72
2022-07-30T01:28:33.680Z,98328.50
2022-07-30T01:31:01.542Z,98320.53
2022-07-30T01:33:30.025Z,98311.72
2022-07-30T01:35:58.328Z,98309.03
2022-07-30T01:38:27.387Z,98303.72
2022-07-30T01:40:59.333Z,98300.22
2022-07-30T01:43:27.158Z,98301.06
2022-07-30T01:45:55.464Z,98297.44
2022-07-30T01:48:24.806Z,98294.78
2022-07-30T01:50:55.029Z,98285.25
2022-07-30T01:53:25.148Z,98286.06
2022-07-30T01:55:54.449Z,98283.25
2022-07-30T01:58:25.452Z,98280.59
2022-07-30T02:00:58.247Z,98290.41
2022-07-30T02:03:26.768Z,98280.59
2022-07-30T02:06:00.665Z,98284.13
2022-07-30T02:08:54.637Z,98285.94
2022-07-30T02:11:41.856Z,98279.78
2022-07-30T02:14:18.129Z,98271.78
2022-07-30T02:16:50.210Z,98279.78
2022-07-30T02:19:19.720Z,98263.81
2022-07-30T02:21:51.055Z,98255.84
2022-07-30T02:24:25.875Z,98262.97
2022-07-30T02:26:58.233Z,98261.16
2022-07-30T02:29:25.802Z,98264.63
2022-07-30T02:31:56.263Z,98262.97
2022-07-30T02:34:24.980Z,98266.47
2022-07-30T02:36:53.110Z,98262.97
2022-07-30T02:39:21.331Z,98256.81
2022-07-30T02:41:50.064Z,98263.81
2022-07-30T02:44:20.327Z,98263.81
2022-07-30T02:46:48.801Z,98261.16
2022-07-30T02:49:52.425Z,98269.13
2022-07-30T02:52:19.799Z,98269.97
2022-07-30T02:54:49.431Z,98274.47
2022-07-30T02:57:19.412Z,98269.97
2022-07-30T02:59:47.800Z,98262.28
2022-07-30T03:02:15.138Z,98269.13
2022-07-30T03:04:43.284Z,98246.91
2022-07-30T03:07:11.164Z,98256.66
2022-07-30T03:09:51.926Z,98261.97
2022-07-30T03:12:21.604Z,98253.44
2022-07-30T03:14:48.343Z,98265.63
2022-07-30T03:17:17.137Z,98269.13
2022-07-30T03:19:45.622Z,98271.78
2022-07-30T03:22:14.763Z,98261.97
2022-07-30T03:24:44.341Z,98266.47
2022-07-30T03:27:13.749Z,98260.19
2022-07-30T03:29:41.905Z,98267.31
2022-07-30T03:32:09.236Z,98277.13
2022-07-30T03:34:42.071Z,98261.16
2022-07-30T03:37:10.975Z,98275.28
2022-07-30T03:39:39.749Z,98277.13
2022-07-30T03:42:08.048Z,98269.13
2022-07-30T03:44:37.160Z,98264.50
2022-07-30T03:47:06.137Z,98272.63
2022-07-30T03:49:38.705Z,98275.28
2022-07-30T03:52:09.938Z,98279.78
2022-07-30T03:54:37.128Z,98285.09
2022-07-30T03:57:09.884Z,98291.25
2022-07-30T03:59:43.350Z,98294.88
2022-07-30T04:02:10.165Z,98288.75
2022-07-30T04:05:05.893Z,98292.69
2022-07-30T04:07:33.131Z,98292.22
2022-07-30T04:09:59.700Z,98292.22
2022-07-30T04:12:45.256Z,98298.41
2022-07-30T04:16:35.555Z,98297.53
2022-07-30T04:18:04.363Z,98297.53
2022-07-30T04:20:36.802Z,98301.88
2022-07-30T04:23:04.197Z,98299.22
2022-07-30T04:25:32.003Z,98295.75
2022-07-30T04:28:03.786Z,98295.75
2022-07-30T04:30:34.757Z,98286.91
2022-07-30T04:33:03.332Z,98285.94
2022-07-30T04:35:51.292Z,98291.25
2022-07-30T04:38:32.376Z,98291.25
2022-07-30T04:40:59.057Z,98299.22
2022-07-30T04:43:28.245Z,98291.25
2022-07-30T04:45:55.098Z,98291.66
2022-07-30T04:48:21.990Z,98298.25
2022-07-30T04:51:07.329Z,98293.09
2022-07-30T04:53:35.328Z,98276.84
2022-07-30T04:56:04.195Z,98288.59
2022-07-30T04:58:33.780Z,98289.44
2022-07-30T05:01:01.935Z,98289.44
2022-07-30T05:03:31.678Z,98295.59
2022-07-30T05:06:00.329Z,98296.41
2022-07-30T05:08:31.307Z,98300.91
2022-07-30T05:11:01.043Z,98292.94
2022-07-30T05:15:51.686Z,98302.75
2022-07-30T05:18:20.170Z,98297.44
2022-07-30T05:20:46.776Z,98304.41
2022-07-30T05:23:21.273Z,98293.75
2022-07-30T05:26:21.673Z,98298.25
2022-07-30T05:28:55.259Z,98292.94
2022-07-30T05:31:30.654Z,98292.94
2022-07-30T05:34:03.591Z,98292.94
2022-07-30T05:36:39.916Z,98286.78
2022-07-30T05:39:06.549Z,98285.53
2022-07-30T05:41:44.932Z,98294.63
2022-07-30T05:44:21.982Z,98296.41
2022-07-30T05:46:50.468Z,98299.06
2022-07-30T05:49:17.422Z,98306.09
2022-07-30T05:51:45.284Z,98306.94
2022-07-30T05:54:12.405Z,98308.75
2022-07-30T05:57:08.188Z,98311.41
2022-07-30T05:59:37.865Z,98310.59
2022-07-30T06:02:30.632Z,98309.59
2022-07-30T06:05:15.992Z,98305.41
2022-07-30T06:07:43.425Z,98317.59
2022-07-30T06:10:10.173Z,98316.72
2022-07-30T06:12:37.527Z,98306.94
2022-07-30T06:15:04.604Z,98308.63
2022-07-30T06:17:44.836Z,98305.09
2022-07-30T06:20:30.407Z,98300.66
2022-07-30T06:23:08.907Z,98293.63
2022-07-30T06:26:04.528Z,98294.47
2022-07-30T06:28:39.438Z,98294.63
2022-07-30T06:31:35.825Z,98300.66
2022-07-30T06:34:02.405Z,98301.47
2022-07-30T06:36:34.564Z,98296.16
2022-07-30T06:39:05.081Z,98296.16
2022-07-30T06:41:52.080Z,98281.88
2022-07-30T06:44:18.741Z,98277.38
2022-07-30T06:46:51.111Z,98281.88
2022-07-30T06:49:20.177Z,98281.88
2022-07-30T06:53:59.517Z,98273.88
2022-07-30T06:56:29.022Z,98263.25
2022-07-30T06:59:01.847Z,98255.25
2022-07-30T07:01:47.203Z,98260.72
2022-07-30T07:04:14.757Z,98268.56
2022-07-30T07:06:41.487Z,98268.56
2022-07-30T07:09:10.021Z,98264.06
2022-07-30T07:11:44.919Z,98267.59
2022-07-30T07:14:15.740Z,98272.03
2022-07-30T07:16:42.352Z,98271.94
2022-07-30T07:19:59.447Z,98268.41
2022-07-30T07:22:18.356Z,98263.09
2022-07-30T07:24:45.036Z,98263.09
2022-07-30T07:27:16.734Z,98262.13
2022-07-30T07:30:04.693Z,98256.81
2022-07-30T07:32:36.221Z,98264.78
2022-07-30T07:35:04.616Z,98254.97
2022-07-30T07:37:32.912Z,98263.81
2022-07-30T07:39:59.745Z,98268.16
2022-07-30T07:42:29.288Z,98263.81
2022-07-30T07:44:56.024Z,98256.66
2022-07-30T07:47:23.593Z,98243.50
2022-07-30T07:50:10.583Z,98248.69
2022-07-30T07:52:37.244Z,98238.88
2022-07-30T07:55:04.127Z,98238.03
2022-07-30T07:57:44.513Z,98237.88
2022-07-30T08:00:15.161Z,98228.25
2022-07-30T08:02:51.330Z,98216.31
2022-07-30T08:05:18.956Z,98214.78
2022-07-30T08:07:46.051Z,98234.41
2022-07-30T08:10:31.697Z,98230.75
2022-07-30T08:13:47.857Z,98214.94
2022-07-30T08:16:22.214Z,98212.28
2022-07-30T08:18:51.940Z,98218.44
2022-07-30T08:21:26.309Z,98222.78
2022-07-30T08:23:53.123Z,98217.44
2022-07-30T08:26:20.040Z,98212.94
2022-07-30T08:28:46.938Z,98215.59
2022-07-30T08:31:13.683Z,98211.16
2022-07-30T08:33:40.329Z,98206.66
2022-07-30T08:36:09.647Z,98206.66
2022-07-30T08:38:38.150Z,98204.00
2022-07-30T08:41:05.332Z,98210.16
2022-07-30T08:43:35.780Z,98208.31
2022-07-30T08:46:05.291Z,98198.97
2022-07-30T08:49:07.575Z,98190.53
2022-07-30T08:51:36.726Z,98205.50
2022-07-30T08:54:28.212Z,98200.19
2022-07-30T08:56:55.949Z,98208.16
2022-07-30T08:59:24.588Z,98197.53
2022-07-30T09:02:12.995Z,98189.53
2022-07-30T09:04:54.328Z,98196.53
2022-07-30T09:07:21.142Z,98187.59
2022-07-30T09:09:47.978Z,98190.25
2022-07-30T09:12:36.570Z,98174.28
2022-07-30T09:15:10.005Z,98176.94
2022-07-30T09:18:00.545Z,98172.44
2022-07-30T09:20:32.556Z,98173.28
2022-07-30T09:23:02.986Z,98164.44
2022-07-30T09:28:16.133Z,98161.78
2022-07-30T09:31:02.396Z,98154.66
2022-07-30T09:33:47.892Z,98152.81
2022-07-30T09:38:56.504Z,98154.50
2022-07-30T09:41:46.405Z,98154.50
2022-07-30T09:44:23.940Z,98165.00
2022-07-30T09:46:53.523Z,98159.69
2022-07-30T09:49:31.716Z,98166.84
2022-07-30T09:51:59.217Z,98170.03
2022-07-30T09:54:51.580Z,98164.72
2022-07-30T09:57:27.569Z,98153.22
2022-07-30T10:00:24.003Z,98164.56
2022-07-30T10:05:31.449Z,98154.75
2022-07-30T10:08:02.621Z,98150.28
2022-07-30T10:10:31.527Z,98152.94
2022-07-30T10:13:04.431Z,98148.44
2022-07-30T10:15:37.153Z,98126.22
2022-07-30T10:18:06.083Z,98143.97
2022-07-30T10:21:10.865Z,98134.13
2022-07-30T10:23:56.673Z,98137.78
2022-07-30T10:26:43.529Z,98128.97
2022-07-30T10:29:33.730Z,98131.47
2022-07-30T10:32:02.095Z,98132.31
2022-07-30T10:34:33.913Z,98129.81
2022-07-30T10:37:06.609Z,98133.16
2022-07-30T10:39:47.380Z,98129.50
2022-07-30T10:42:37.307Z,98133.00
2022-07-30T10:45:23.475Z,98136.53
2022-07-30T10:47:52.267Z,98131.19
2022-07-30T10:50:26.446Z,98136.38
2022-07-30T10:52:58.767Z,98127.53
2022-07-30T10:55:36.822Z,98123.06
2022-07-30T10:58:08.620Z,98116.75
2022-07-30T11:00:53.797Z,98114.91
2022-07-30T11:03:40.036Z,98110.44
2022-07-30T11:06:24.025Z,98113.94
2022-07-30T11:08:50.805Z,98098.78
2022-07-30T11:11:59.060Z,98102.28
2022-07-30T11:14:09.965Z,98096.00
2022-07-30T11:16:36.981Z,98095.13
2022-07-30T11:19:56.988Z,98093.31
2022-07-30T11:22:28.176Z,98046.59
2022-07-30T11:24:55.671Z,98109.13
2022-07-30T11:27:45.867Z,98110.94
2022-07-30T11:30:17.232Z,98111.81
2022-07-30T11:32:48.489Z,98012.31
2022-07-30T11:38:19.705Z,98107.19
2022-07-30T11:40:49.175Z,98095.66
2022-07-30T11:43:34.833Z,98055.03
2022-07-30T11:46:12.292Z,98088.53
2022-07-30T11:48:56.900Z,98089.38
2022-07-30T11:51:24.389Z,98078.88
2022-07-30T11:54:17.569Z,98076.75
2022-07-30T11:57:02.081Z,98084.72
2022-07-30T11:59:30.840Z,98082.06
2022-07-30T12:02:01.583Z,98082.88
2022-07-30T12:04:28.678Z,98081.06
2022-07-30T12:06:55.729Z,98074.91
2022-07-30T12:09:29.836Z,98073.91
2022-07-30T12:11:57.337Z,98069.41
2022-07-30T12:14:24.241Z,98061.44
2022-07-30T12:16:53.078Z,98056.97
2022-07-30T12:19:19.965Z,98060.44
2022-07-30T12:21:50.927Z,98055.97
2022-07-30T12:24:25.950Z,98063.97
2022-07-30T12:26:52.628Z,98060.44
2022-07-30T12:29:19.469Z,98065.63
2022-07-30T12:31:46.820Z,98078.09
2022-07-30T12:34:24.899Z,98081.59
2022-07-30T12:36:51.989Z,98084.25
2022-07-30T12:39:21.327Z,98084.25
2022-07-30T12:41:50.332Z,98085.09
2022-07-30T12:44:45.124Z,98079.78
2022-07-30T12:47:26.616Z,98082.44
2022-07-30T12:49:55.851Z,98087.78
2022-07-30T12:52:30.995Z,98085.09
2022-07-30T12:55:12.425Z,98092.13
2022-07-30T12:57:56.487Z,98096.59
2022-07-30T13:00:25.057Z,98091.25
2022-07-30T13:02:51.901Z,98085.94
2022-07-30T13:05:18.525Z,98073.53
2022-07-30T13:08:00.121Z,98077.88
2022-07-30T13:10:31.298Z,98093.78
2022-07-30T13:12:58.592Z,98092.94
2022-07-30T13:15:25.380Z,98091.25
2022-07-30T13:17:52.010Z,98067.91
2022-07-30T13:20:18.686Z,98079.94
2022-07-30T13:22:45.490Z,98088.47
2022-07-30T13:25:12.861Z,98084.25
2022-07-30T13:27:39.807Z,98083.88
2022-07-30T13:30:07.048Z,98101.63
2022-07-30T13:32:33.682Z,98104.44
2022-07-30T13:35:01.882Z,98096.47
2022-07-30T13:37:37.892Z,98100.78
2022-07-30T13:40:06.092Z,98098.41
2022-07-30T13:42:32.829Z,98102.59
2022-07-30T13:44:59.457Z,98092.78
2022-07-30T13:47:25.992Z,98090.97
2022-07-30T13:49:53.369Z,98090.97
2022-07-30T13:52:20.097Z,98089.28
2022-07-30T13:54:46.624Z,98089.28
2022-07-30T13:57:13.235Z,98085.66
2022-07-30T13:59:39.875Z,98078.63
2022-07-30T14:02:06.443Z,98078.63
2022-07-30T14:04:33.113Z,98086.63
2022-07-30T14:06:59.810Z,98091.94
2022-07-30T14:09:26.848Z,98081.47
2022-07-30T14:11:53.591Z,98076.81
2022-07-30T14:14:22.363Z,98076.81
2022-07-30T14:16:53.655Z,98064.34
2022-07-30T14:19:23.177Z,98069.66
2022-07-30T14:21:54.693Z,98061.69
2022-07-30T14:24:22.214Z,98042.13
2022-07-30T14:26:49.164Z,98055.38
2022-07-30T14:29:15.720Z,98048.38
2022-07-30T14:31:42.671Z,98044.84
2022-07-30T14:34:10.120Z,98035.22
2022-07-30T14:36:37.339Z,98044.72
2022-07-30T14:39:04.852Z,98046.53
2022-07-30T14:41:31.682Z,98043.84
2022-07-30T14:43:58.286Z,98042.06
2022-07-30T14:46:24.939Z,98037.56
2022-07-30T14:51:17.664Z,98031.53
2022-07-30T14:53:47.482Z,98035.72
2022-07-30T14:56:14.378Z,98024.22
2022-07-30T14:58:44.182Z,98017.06
2022-07-30T15:01:15.545Z,98016.09
2022-07-30T15:03:42.856Z,98012.44
2022-07-30T15:06:11.753Z,98011.75
2022-07-30T15:08:38.884Z,98003.72
2022-07-30T15:11:07.850Z,97974.88
2022-07-30T15:13:35.734Z,98019.59
2022-07-30T15:16:03.394Z,98022.25
2022-07-30T15:18:30.014Z,98027.59
2022-07-30T15:20:56.633Z,98033.75
2022-07-30T15:23:23.272Z,98032.06
2022-07-30T15:25:49.809Z,98036.41
2022-07-30T15:28:16.635Z,98041.19
2022-07-30T15:30:43.356Z,98039.06
2022-07-30T15:33:10.002Z,98046.06
2022-07-30T15:35:37.464Z,98041.72
2022-07-30T15:38:04.353Z,98043.41
2022-07-30T15:40:31.048Z,98040.91
2022-07-30T15:42:57.765Z,98029.28
2022-07-30T15:45:24.984Z,98039.06
2022-07-30T15:47:51.768Z,98034.72
2022-07-30T15:50:18.430Z,98008.19
2022-07-30T15:52:45.242Z,98030.25
2022-07-30T15:55:12.309Z,98008.06
2022-07-30T15:57:39.024Z,98021.28
2022-07-30T16:00:09.797Z,97999.22
2022-07-30T16:02:39.854Z,98012.28
2022-07-30T16:07:18.584Z,98016.78
2022-07-30T16:09:45.273Z,98015.09
2022-07-30T16:12:11.981Z,98003.38
2022-07-30T16:14:38.609Z,98013.28
2022-07-30T16:17:10.472Z,98007.13
2022-07-30T16:19:40.981Z,98006.13
2022-07-30T16:22:11.452Z,97999.97
2022-07-30T16:24:37.997Z,98002.47
2022-07-30T16:27:04.713Z,97989.78
2022-07-30T16:29:31.336Z,97991.97
2022-07-30T16:31:57.961Z,97991.13
2022-07-30T16:34:26.512Z,97996.47
2022-07-30T16:36:53.853Z,97983.06
2022-07-30T16:39:20.502Z,97990.31
2022-07-30T16:41:47.111Z,98004.44
2022-07-30T16:44:14.137Z,97993.78
2022-07-30T16:46:41.803Z,97997.31
2022-07-30T16:49:08.448Z,97999.97
2022-07-30T16:53:56.120Z,98010.63
2022-07-30T16:56:22.704Z,98007.97
2022-07-30T16:58:49.225Z,98018.63
2022-07-30T17:01:18.958Z,98013.28
2022-07-30T17:03:45.618Z,98004.44
2022-07-30T17:06:12.215Z,98021.28
2022-07-30T17:08:39.170Z,98015.09
2022-07-30T17:11:09.056Z,98020.25
2022-07-30T17:13:36.750Z,98014.13
2022-07-30T17:16:03.439Z,98015.09
2022-07-30T17:18:30.081Z,98013.28
2022-07-30T17:20:56.684Z,98013.28
2022-07-30T17:23:23.362Z,98018.63
2022-07-30T17:25:50.183Z,98014.13
2022-07-30T17:28:19.456Z,98011.44
2022-07-30T17:30:48.709Z,98003.47
2022-07-30T17:33:15.241Z,97997.31
2022-07-30T17:35:41.848Z,97995.47
2022-07-30T17:38:08.430Z,97992.81
2022-07-30T17:40:35.136Z,97991.97
2022-07-30T17:43:05.526Z,97980.47
2022-07-30T17:45:35.773Z,97985.66
2022-07-30T17:48:03.176Z,97982.16
2022-07-30T17:50:30.727Z,97979.50
2022-07-30T17:52:57.401Z,97973.34
2022-07-30T17:55:24.894Z,97978.66
2022-07-30T17:57:51.634Z,97982.16
2022-07-30T18:00:18.342Z,97980.47
2022-07-30T18:02:44.926Z,97979.50
2022-07-30T18:05:16.921Z,97980.31
2022-07-30T18:07:44.382Z,97979.66
2022-07-30T18:10:12.168Z,97986.50
2022-07-30T18:12:39.023Z,97981.16
2022-07-30T18:15:15.681Z,97980.31
2022-07-30T18:17:42.221Z,97990.97
2022-07-30T18:20:09.497Z,97985.66
2022-07-30T18:22:36.085Z,97987.47
2022-07-30T18:25:03.119Z,97991.81
2022-07-30T18:27:34.367Z,97991.81
2022-07-30T18:30:01.049Z,97994.50
2022-07-30T18:32:27.636Z,97996.28
2022-07-30T18:34:54.226Z,97997.16
2022-07-30T18:37:21.000Z,97998.97
2022-07-30T18:39:47.514Z,98005.97
2022-07-30T18:42:14.089Z,98009.59
2022-07-30T18:44:40.691Z,98008.78
2022-07-30T18:47:07.312Z,98011.44
2022-07-30T18:49:37.044Z,98008.78
2022-07-30T18:52:05.398Z,98006.94
2022-07-30T18:54:32.295Z,97998.97
2022-07-30T18:56:58.901Z,97998.97
2022-07-30T18:59:25.489Z,97999.81
2022-07-30T19:01:52.228Z,97987.94
2022-07-30T19:04:18.849Z,97985.66
2022-07-30T19:06:45.649Z,97990.97
2022-07-30T19:09:17.294Z,97991.81
2022-07-30T19:11:45.361Z,97988.31
2022-07-30T19:14:13.264Z,97989.16
2022-07-30T19:16:41.834Z,97988.31
2022-07-30T19:19:09.069Z,97982.16
2022-07-30T19:21:35.848Z,97981.34
2022-07-30T19:24:02.413Z,97989.16
2022-07-30T19:26:29.148Z,97977.66
2022-07-30T19:28:55.958Z,97971.50
2022-07-30T19:31:22.565Z,97975.00
2022-07-30T19:33:49.538Z,97967.00
2022-07-30T19:36:20.595Z,97967.84
2022-07-30T19:38:48.848Z,97961.69
2022-07-30T19:41:16.379Z,97961.69
2022-07-30T19:43:43.185Z,97943.13
2022-07-30T19:46:24.520Z,97956.34
2022-07-30T19:48:51.182Z,97953.69
2022-07-30T19:51:20.963Z,97948.34
2022-07-30T19:53:50.337Z,97953.69
2022-07-30T19:56:19.536Z,97945.84
2022-07-30T19:58:46.236Z,97959.00
2022-07-30T20:01:16.036Z,97957.38
2022-07-30T20:03:45.789Z,97940.47
2022-07-30T20:06:15.132Z,97963.50
2022-07-30T20:08:44.833Z,97953.69
2022-07-30T20:11:16.395Z,97956.34
2022-07-30T20:13:48.061Z,97958.19
2022-07-30T20:16:16.079Z,97960.03
2022-07-30T20:18:44.391Z,97952.88
2022-07-30T20:21:15.374Z,97947.53
2022-07-30T20:23:44.395Z,97951.03
2022-07-30T20:26:14.283Z,97959.00
2022-07-30T20:28:47.934Z,97942.66
2022-07-30T20:31:20.565Z,97948.84
2022-07-30T20:33:50.917Z,97952.16
2022-07-30T20:36:18.440Z,97960.84
2022-07-30T20:38:46.896Z,97956.34
2022-07-30T20:41:14.709Z,97957.38
2022-07-30T20:43:45.856Z,97968.84
2022-07-30T20:46:13.770Z,97956.34
2022-07-30T20:48:41.960Z,97963.50
2022-07-30T20:51:09.513Z,97957.38
2022-07-30T20:53:36.960Z,97962.69
2022-07-30T20:56:03.969Z,97957.38
2022-07-30T20:58:30.568Z,97949.22
2022-07-30T21:00:57.297Z,97944.88
2022-07-30T21:03:23.923Z,97945.69
2022-07-30T21:05:52.726Z,97940.88
2022-07-30T21:08:19.527Z,97950.19
2022-07-30T21:10:46.749Z,97945.50
2022-07-30T21:13:13.694Z,97959.19
2022-07-30T21:15:45.755Z,97955.53
2022-07-30T21:18:27.973Z,97952.03
2022-07-30T21:20:54.499Z,97958.19
2022-07-30T21:23:23.662Z,97946.19
2022-07-30T21:26:01.998Z,97948.84
2022-07-30T21:28:35.549Z,97960.84
2022-07-30T21:31:07.161Z,97951.03
2022-07-30T21:33:38.546Z,97955.53
2022-07-30T21:36:10.286Z,97955.53
2022-07-30T21:38:39.165Z,97949.38
2022-07-30T21:41:14.433Z,97946.47
2022-07-30T21:43:43.013Z,97953.03
2022-07-30T21:46:10.578Z,97940.53
2022-07-30T21:48:37.479Z,97944.06
2022-07-30T21:51:06.356Z,97943.53
2022-07-30T21:53:44.962Z,97944.88
2022-07-30T21:56:12.503Z,97945.84
2022-07-30T21:58:39.398Z,97935.53
2022-07-30T22:04:04.762Z,97933.41
2022-07-30T22:06:41.444Z,97943.03
2022-07-30T22:09:19.015Z,97948.34
2022-07-30T22:12:01.250Z,97938.72
2022-07-30T22:14:29.141Z,97932.53
2022-07-30T22:16:56.511Z,97934.22
2022-07-30T22:19:23.241Z,97933.41
2022-07-30T22:21:52.807Z,97920.38
2022-07-30T22:27:14.478Z,97916.56
2022-07-30T22:29:43.068Z,97914.75
2022-07-30T22:32:10.887Z,97911.06
2022-07-30T22:34:37.681Z,97907.75
2022-07-30T22:37:04.472Z,97913.75
2022-07-30T22:39:50.316Z,97905.22
2022-07-30T22:42:18.484Z,97888.38
2022-07-30T22:44:46.052Z,97904.09
2022-07-30T22:47:18.849Z,97902.25
2022-07-30T22:49:55.787Z,97893.59
2022-07-30T22:55:11.806Z,97892.59
2022-07-30T22:57:38.477Z,97904.09
2022-07-30T23:00:11.000Z,97896.13
2022-07-30T23:02:42.208Z,97877.72
2022-07-30T23:05:10.411Z,97888.13
2022-07-30T23:10:27.667Z,97891.78
2022-07-30T23:12:28.082Z,97942.22
2022-07-30T23:12:32.586Z,97927.22
2022-07-30T23:12:34.278Z,97899.06
2022-07-30T23:12:34.325Z,97891.63
2022-07-30T23:12:54.488Z,97890.78
2022-07-30T23:15:22.001Z,97874.75
2022-07-30T23:17:48.772Z,97886.28
2022-07-30T23:20:17.852Z,97879.28
2022-07-30T23:22:44.457Z,97881.94
2022-07-30T23:25:12.253Z,97876.63
2022-07-30T23:27:39.547Z,97880.13
2022-07-30T23:30:08.369Z,97864.78
2022-07-30T23:32:34.973Z,97873.13
2022-07-30T23:35:01.564Z,97875.81
2022-07-30T23:37:28.529Z,97873.13
2022-07-30T23:40:06.717Z,97869.63
2022-07-30T23:42:33.313Z,97865.16
2022-07-30T23:45:00.057Z,97866.97
2022-07-30T23:47:52.887Z,97864.28
2022-07-30T23:50:13.344Z,97858.44
2022-07-30T23:52:40.418Z,97864.28
2022-07-30T23:55:08.585Z,97853.66
2022-07-30T23:57:35.093Z,97852.81
